Meteo Giornale » Osservazioni meteo Germania » Geilenkirchen

ore: 01:50 - Osservazioni Meteo Geilenkirchen
Lat. 50° 58' N Lon. 6° 3' E Alt. 90 metri s.l.m.

sereno Europe/Berlin

21 °C

Sereno

Temp. 24 Ore

21 °C

33 °C

Est

9.3 Km/h

Dew point 18 °C

Umidità 82 %

Visibilità  10 Km

Il sole sorge alle ore 05:18

Il sole tramonta alle ore 21:55

Data e Ora Cielo e Fenomeni T °C DP °C Um. % Pres. hPa Vis. km Vento km/h
Oggi h: 01:50 sereno Sereno 21 18 82 1013 10 E 9.3
Oggi h: 00:50 sereno Sereno 23 18 73 1013 10 N 1.8
Ieri h: 23:50 sereno Sereno 24 18 69 1013 10 N 3.7
Ieri h: 22:50 sereno Sereno 25 18 65 1013 10 N 3.7
Ieri h: 21:50 sereno Sereno 26 18 61 1012 10 O/NO 7.4
Ieri h: 20:50 sereno Sereno 28 19 58 1012 10 N 5.5
Ieri h: 19:50 sereno Sereno 31 18 45 1012 10 O 11.1
Ieri h: 18:50 sereno Sereno 32 18 43 1011 10 O/NO 13
Ieri h: 17:50 sereno Sereno 32 18 43 1011 10 O 16.7
Ieri h: 16:50 sereno Sereno 33 18 41 1011 10 O 16.7
Ieri h: 15:50 sereno Sereno 32 17 40 1011 10 O 18.5
Ieri h: 14:50 sereno Sereno 33 17 38 1011 10 O/SO 16.7
Ieri h: 13:50 sereno Sereno 32 18 43 1011 10 S/SO 13
Ieri h: 12:50 sereno Sereno 31 18 45 1011 10 S/SO 11.1
Ieri h: 11:50 sereno Sereno 30 17 45 1010 10 E/SE 11.1
Ieri h: 10:50 sereno Sereno 30 17 45 1010 10 S/SE 7.4
Ieri h: 09:50 sereno Sereno 28 15 45 1010 10 SO 14.8
Ieri h: 08:50 sereno Sereno 27 16 50 1010 10 N 5.5
Ieri h: 07:50 sereno Sereno 23 16 64 1010 10 N 1.8
Ieri h: 06:50 sereno Sereno 23 14 56 1010 10 N 3.7
Ieri h: 05:50 sereno Sereno 22 14 60 1010 10 N 5.5
Ieri h: 04:50 sereno Sereno 22 14 60 1010 10 S/SE 7.4
Ieri h: 03:50 sereno Sereno 22 15 64 1010 10 S/SE 7.4
Ieri h: 02:50 sereno Sereno 24 14 53 1010 10 S 7.4